Time;durP1;ratioP1;P1;durP2;ratioP2;P2;SDS_P1;SDS_P2;PMS_P1;PMS_P2;Temp;Humidity;BMP_temperature;BMP_pressure;BME280_temperature;BME280_humidity;BME280_pressure;Samples;Min_cycle;Max_cycle;Signal;HPM_P1;HPM_P2
2022/02/04 00:24:09;;;;;;;2.05;0.80;;;;;;;;;;4952346;29;20103;-70
2022/02/04 00:26:50;;;;;;;1.02;0.60;;;;;;;;;;4936088;29;20482;-73
2022/02/04 00:29:31;;;;;;;0.93;0.52;;;;;;;;;;4897919;29;20060;-71
2022/02/04 00:32:06;;;;;;;1.33;0.68;;;;;;;;;;4913714;29;20419;-72
2022/02/04 00:34:44;;;;;;;1.00;0.65;;;;;;;;;;4923421;29;20052;-71
2022/02/04 00:37:27;;;;;;;1.42;0.60;;;;;;;;;;4901130;29;20078;-72
2022/02/04 00:40:07;;;;;;;1.02;0.65;;;;;;;;;;4932569;29;20063;-71
2022/02/04 00:42:37;;;;;;;2.20;0.63;;;;;;;;;;4967031;28;20061;-71
2022/02/04 00:45:24;;;;;;;1.52;0.60;;;;;;;;;;4990446;28;20050;-72
2022/02/04 00:53:32;;;;;;;2.42;0.93;;;;;;;;;;4957936;28;20062;-72
2022/02/04 00:56:16;;;;;;;1.45;0.70;;;;;;;;;;4990350;28;20441;-72
2022/02/04 01:26:43;;;;;;;1.02;0.55;;;;;;;;;;4894161;29;20063;-71
2022/02/04 01:29:14;;;;;;;1.48;0.60;;;;;;;;;;4894072;29;20061;-71
2022/02/04 01:31:45;;;;;;;1.90;0.68;;;;;;;;;;4894074;29;20056;-72
2022/02/04 01:34:15;;;;;;;1.77;0.80;;;;;;;;;;4856940;29;20515;-72
2022/02/04 01:36:46;;;;;;;0.93;0.60;;;;;;;;;;4856689;29;20062;-71
2022/02/04 01:39:16;;;;;;;1.17;0.52;;;;;;;;;;4856733;29;20423;-70
2022/02/04 01:41:47;;;;;;;1.80;0.70;;;;;;;;;;4841077;29;20072;-71
2022/02/04 01:44:24;;;;;;;0.88;0.40;;;;;;;;;;4856800;29;20066;-73
2022/02/04 01:46:56;;;;;;;0.75;0.52;;;;;;;;;;4856628;29;20423;-72
2022/02/04 01:49:28;;;;;;;0.68;0.40;;;;;;;;;;4864035;29;20060;-72
2022/02/04 01:51:58;;;;;;;2.05;0.40;;;;;;;;;;4912171;29;20059;-73
2022/02/04 01:54:29;;;;;;;0.65;0.40;;;;;;;;;;4912646;29;20056;-72
2022/02/04 01:57:00;;;;;;;0.75;0.32;;;;;;;;;;4912501;29;20056;-72
2022/02/04 01:59:31;;;;;;;0.70;0.47;;;;;;;;;;4912901;29;20067;-71
2022/02/04 02:02:01;;;;;;;0.52;0.40;;;;;;;;;;4865695;29;20057;-71
2022/02/04 02:04:34;;;;;;;0.65;0.40;;;;;;;;;;4923781;29;20078;-71
2022/02/04 02:07:10;;;;;;;2.35;0.50;;;;;;;;;;4931244;29;20051;-71
2022/02/04 02:10:04;;;;;;;0.75;0.50;;;;;;;;;;4931964;29;20056;-72
2022/02/04 02:12:43;;;;;;;0.65;0.50;;;;;;;;;;4931451;29;20047;-71
2022/02/04 02:15:31;;;;;;;1.20;0.40;;;;;;;;;;4931424;29;20055;-68
2022/02/04 02:46:21;;;;;;;4.78;0.60;;;;;;;;;;4956309;28;20055;-70
2022/02/04 02:59:37;;;;;;;1.48;0.60;;;;;;;;;;4934363;29;20055;-71
2022/02/04 03:02:09;;;;;;;1.73;0.52;;;;;;;;;;4934681;29;20460;-72
2022/02/04 03:04:39;;;;;;;1.40;0.47;;;;;;;;;;4934599;29;20488;-71
2022/02/04 03:07:09;;;;;;;3.28;0.55;;;;;;;;;;4915244;29;20048;-71
2022/02/04 03:09:39;;;;;;;3.00;0.80;;;;;;;;;;4891252;29;20060;-72
2022/02/04 03:12:10;;;;;;;1.15;0.70;;;;;;;;;;4934372;29;20056;-72
2022/02/04 03:14:40;;;;;;;0.80;0.52;;;;;;;;;;4934158;29;20503;-72
2022/02/04 03:17:13;;;;;;;0.60;0.40;;;;;;;;;;4896210;29;20382;-72
2022/02/04 03:19:48;;;;;;;1.02;0.65;;;;;;;;;;4896135;29;20513;-71
2022/02/04 03:22:19;;;;;;;1.63;0.63;;;;;;;;;;4896365;29;20164;-72
2022/02/04 03:24:56;;;;;;;2.60;0.47;;;;;;;;;;4896025;29;20488;-72
2022/02/04 03:27:35;;;;;;;1.13;0.45;;;;;;;;;;4865106;29;20127;-72
2022/02/04 03:30:13;;;;;;;2.83;0.50;;;;;;;;;;4850488;29;20057;-71
2022/02/04 03:32:52;;;;;;;0.70;0.43;;;;;;;;;;4928615;29;20551;-72
2022/02/04 03:35:24;;;;;;;1.85;0.50;;;;;;;;;;4933873;29;20060;-72
2022/02/04 03:37:56;;;;;;;1.10;0.50;;;;;;;;;;4926623;28;20054;-69
2022/02/04 03:40:27;;;;;;;2.08;0.40;;;;;;;;;;4972300;28;20043;-71
2022/02/04 03:42:57;;;;;;;2.45;0.77;;;;;;;;;;4972305;28;20498;-73
2022/02/04 03:45:28;;;;;;;1.92;0.60;;;;;;;;;;4940736;28;20051;-72
2022/02/04 03:47:58;;;;;;;2.30;0.50;;;;;;;;;;4972197;28;20055;-72
2022/02/04 03:50:29;;;;;;;1.52;0.80;;;;;;;;;;4956326;28;20062;-72
2022/02/04 03:52:59;;;;;;;1.48;0.63;;;;;;;;;;4940122;28;20546;-72
2022/02/04 03:55:31;;;;;;;2.55;0.50;;;;;;;;;;4970784;28;20529;-72
2022/02/04 03:58:01;;;;;;;2.15;0.77;;;;;;;;;;4948312;28;20061;-71
2022/02/04 04:00:31;;;;;;;2.97;0.60;;;;;;;;;;5013344;28;20049;-72
2022/02/04 04:03:02;;;;;;;2.55;0.73;;;;;;;;;;4962775;28;20058;-72
2022/02/04 04:05:37;;;;;;;4.00;0.90;;;;;;;;;;4978774;28;20054;-72
2022/02/04 04:08:08;;;;;;;1.02;0.50;;;;;;;;;;4978961;28;20057;-72
2022/02/04 04:10:40;;;;;;;4.10;0.50;;;;;;;;;;5013118;28;20045;-72
2022/02/04 04:13:13;;;;;;;3.55;0.63;;;;;;;;;;5012919;28;20542;-72
2022/02/04 04:15:43;;;;;;;2.40;0.60;;;;;;;;;;4978409;28;20049;-71
2022/02/04 04:18:14;;;;;;;1.50;0.40;;;;;;;;;;4978434;28;20417;-73
2022/02/04 04:20:46;;;;;;;1.23;0.63;;;;;;;;;;5012948;28;20038;-72
2022/02/04 04:23:16;;;;;;;4.22;0.85;;;;;;;;;;4995782;28;20061;-73
2022/02/04 04:25:47;;;;;;;1.90;0.68;;;;;;;;;;4962014;28;20069;-71
2022/02/04 04:28:18;;;;;;;2.72;0.90;;;;;;;;;;4978109;28;20060;-67
2022/02/04 04:30:49;;;;;;;8.98;0.80;;;;;;;;;;5012775;28;20045;-68
2022/02/04 04:33:19;;;;;;;3.15;0.68;;;;;;;;;;5012771;28;20053;-69
2022/02/04 04:35:49;;;;;;;1.83;0.60;;;;;;;;;;4978900;28;20053;-68
2022/02/04 04:38:30;;;;;;;3.50;0.90;;;;;;;;;;4970878;28;20054;-67
2022/02/04 04:41:14;;;;;;;1.75;0.85;;;;;;;;;;4971105;28;20062;-70
2022/02/04 04:44:11;;;;;;;2.97;0.80;;;;;;;;;;4970999;28;20059;-74
2022/02/04 05:31:05;;;;;;;2.83;0.95;;;;;;;;;;4912463;29;20059;-74
2022/02/04 05:33:36;;;;;;;3.53;0.90;;;;;;;;;;4912950;29;20056;-74
2022/02/04 05:36:09;;;;;;;2.95;0.80;;;;;;;;;;4912686;29;20104;-71
2022/02/04 05:38:41;;;;;;;3.65;0.90;;;;;;;;;;4913121;29;20044;-71
2022/02/04 05:41:17;;;;;;;1.35;0.65;;;;;;;;;;4874801;29;20079;-73
2022/02/04 05:43:50;;;;;;;1.88;0.82;;;;;;;;;;4844375;29;20461;-74
2022/02/04 05:46:26;;;;;;;2.20;1.27;;;;;;;;;;4859741;29;20409;-73
2022/02/04 05:48:58;;;;;;;3.35;0.93;;;;;;;;;;4875430;29;20065;-72
2022/02/04 05:51:44;;;;;;;1.92;0.95;;;;;;;;;;4844267;29;20049;-70
2022/02/04 05:54:25;;;;;;;2.42;0.68;;;;;;;;;;4873767;29;20062;-70
2022/02/04 05:57:13;;;;;;;2.35;0.90;;;;;;;;;;4932077;29;20059;-74
2022/02/04 06:00:13;;;;;;;3.58;1.08;;;;;;;;;;4931544;29;20558;-72
2022/02/04 06:02:58;;;;;;;4.50;0.93;;;;;;;;;;4901447;29;20063;-72
2022/02/04 06:11:16;;;;;;;2.03;0.70;;;;;;;;;;4893677;29;20065;-70
2022/02/04 06:14:22;;;;;;;1.83;0.95;;;;;;;;;;4893643;29;20052;-69
2022/02/04 06:22:26;;;;;;;2.53;1.00;;;;;;;;;;4950622;29;20062;-69
2022/02/04 06:24:57;;;;;;;1.00;0.55;;;;;;;;;;4952416;28;20055;-69
2022/02/04 06:27:28;;;;;;;2.92;0.90;;;;;;;;;;4907928;29;20059;-70
2022/02/04 06:29:58;;;;;;;1.60;0.60;;;;;;;;;;4954189;29;20059;-69
2022/02/04 06:32:28;;;;;;;1.95;0.90;;;;;;;;;;4953931;29;20059;-69
2022/02/04 06:34:59;;;;;;;1.60;0.95;;;;;;;;;;4954128;29;20152;-69
2022/02/04 06:37:31;;;;;;;1.63;0.70;;;;;;;;;;4906594;29;20055;-69
2022/02/04 06:40:03;;;;;;;1.85;0.70;;;;;;;;;;4906531;29;20546;-69
2022/02/04 06:42:34;;;;;;;1.55;0.60;;;;;;;;;;4953964;29;20442;-70
2022/02/04 06:45:05;;;;;;;2.90;0.70;;;;;;;;;;4953025;28;20043;-69
2022/02/04 06:47:36;;;;;;;1.92;0.68;;;;;;;;;;4992814;28;20050;-69
2022/02/04 06:50:07;;;;;;;3.20;0.95;;;;;;;;;;4992674;28;20058;-69
2022/02/04 06:52:38;;;;;;;2.97;0.82;;;;;;;;;;4976817;28;20054;-68
2022/02/04 06:55:08;;;;;;;2.50;0.82;;;;;;;;;;4960187;28;20046;-69
2022/02/04 06:57:45;;;;;;;2.20;0.65;;;;;;;;;;4953774;29;20055;-69
2022/02/04 07:00:18;;;;;;;1.55;0.60;;;;;;;;;;4953425;29;20526;-69
2022/02/04 07:02:48;;;;;;;3.42;0.90;;;;;;;;;;4953299;29;20062;-69
2022/02/04 07:05:18;;;;;;;1.55;0.70;;;;;;;;;;4953567;29;20064;-69
2022/02/04 07:08:00;;;;;;;2.38;0.80;;;;;;;;;;4934536;29;20047;-69
2022/02/04 07:10:51;;;;;;;3.20;0.70;;;;;;;;;;4934167;29;20067;-69
2022/02/04 07:13:44;;;;;;;3.35;0.90;;;;;;;;;;4909045;29;20060;-69
2022/02/04 07:16:40;;;;;;;2.22;0.70;;;;;;;;;;4934498;29;20063;-69
2022/02/04 07:21:59;;;;;;;1.27;0.55;;;;;;;;;;4933862;29;20504;-69
2022/02/04 07:24:29;;;;;;;1.25;0.60;;;;;;;;;;4934008;29;20055;-69
2022/02/04 07:26:59;;;;;;;2.10;0.80;;;;;;;;;;4895902;29;20059;-69
2022/02/04 07:29:30;;;;;;;1.42;0.80;;;;;;;;;;4895888;29;20057;-70
2022/02/04 07:32:07;;;;;;;3.78;0.68;;;;;;;;;;4880368;29;20063;-71
2022/02/04 07:42:45;;;;;;;1.92;1.02;;;;;;;;;;4934118;29;20051;-70
2022/02/04 07:45:16;;;;;;;3.15;0.80;;;;;;;;;;4949550;28;20058;-69
2022/02/04 07:47:47;;;;;;;0.95;0.52;;;;;;;;;;4940013;28;20051;-70
2022/02/04 07:50:20;;;;;;;1.85;0.80;;;;;;;;;;4933455;29;20052;-70
2022/02/04 07:52:52;;;;;;;2.05;0.63;;;;;;;;;;4933746;29;20071;-69
2022/02/04 07:55:23;;;;;;;2.10;0.70;;;;;;;;;;4933671;29;20055;-70
2022/02/04 07:57:53;;;;;;;1.30;0.73;;;;;;;;;;4933308;29;20060;-69
2022/02/04 08:00:24;;;;;;;2.67;0.75;;;;;;;;;;4933453;29;20048;-69
2022/02/04 08:02:54;;;;;;;1.50;0.60;;;;;;;;;;4934051;29;20606;-70
2022/02/04 08:05:28;;;;;;;1.65;0.60;;;;;;;;;;4917243;28;20106;-69
2022/02/04 08:08:22;;;;;;;3.08;0.60;;;;;;;;;;4971727;28;20062;-69
2022/02/04 08:11:11;;;;;;;2.47;0.60;;;;;;;;;;4952113;29;20055;-69
2022/02/04 08:17:01;;;;;;;2.50;0.43;;;;;;;;;;4952254;29;20078;-71
2022/02/04 08:32:50;;;;;;;3.28;1.15;;;;;;;;;;4879256;29;20061;-69
2022/02/04 08:35:35;;;;;;;3.45;1.15;;;;;;;;;;4895284;29;20064;-70
2022/02/04 08:38:31;;;;;;;;;;;;;;;;;;4876364;29;20057;-70
2022/02/04 08:47:11;;;;;;;1.08;0.63;;;;;;;;;;4876201;29;20061;-70
2022/02/04 08:52:43;;;;;;;1.75;0.60;;;;;;;;;;4894670;29;20056;-70
2022/02/04 08:55:22;;;;;;;1.95;0.60;;;;;;;;;;4894136;29;20063;-69
2022/02/04 08:58:05;;;;;;;4.35;0.93;;;;;;;;;;4894439;29;20468;-69
2022/02/04 09:00:48;;;;;;;1.55;0.60;;;;;;;;;;4894484;29;20082;-69
2022/02/04 09:03:36;;;;;;;0.85;0.50;;;;;;;;;;4894272;29;20057;-69
2022/02/04 09:06:25;;;;;;;2.95;0.52;;;;;;;;;;4880473;29;20068;-69
2022/02/04 09:08:59;;;;;;;1.33;0.82;;;;;;;;;;4923188;29;20059;-69
2022/02/04 09:17:00;;;;;;;4.40;0.80;;;;;;;;;;4914991;29;20071;-70
2022/02/04 09:20:01;;;;;;;1.70;0.50;;;;;;;;;;4932327;29;20059;-71
2022/02/04 09:25:09;;;;;;;2.50;0.70;;;;;;;;;;4881288;29;20048;-70
2022/02/04 09:27:40;;;;;;;0.93;0.50;;;;;;;;;;4913028;29;20063;-70
2022/02/04 09:30:12;;;;;;;2.35;0.47;;;;;;;;;;4881391;29;20401;-69
2022/02/04 09:32:44;;;;;;;2.95;0.82;;;;;;;;;;4909636;29;20861;-70
2022/02/04 09:35:22;;;;;;;1.02;0.57;;;;;;;;;;4951175;29;20156;-70
2022/02/04 09:37:54;;;;;;;3.28;0.60;;;;;;;;;;4950994;29;20415;-70
2022/02/04 09:40:24;;;;;;;1.73;0.80;;;;;;;;;;4951047;29;20095;-71
2022/02/04 09:42:55;;;;;;;1.42;0.70;;;;;;;;;;4951100;29;20059;-71
2022/02/04 09:45:27;;;;;;;3.63;0.50;;;;;;;;;;4934708;29;20051;-71
2022/02/04 09:48:01;;;;;;;2.90;0.57;;;;;;;;;;4935393;28;20562;-70
2022/02/04 09:50:38;;;;;;;2.35;0.73;;;;;;;;;;4973893;28;20054;-71
2022/02/04 10:05:11;;;;;;;1.83;0.90;;;;;;;;;;4977203;28;20051;-71
2022/02/04 10:11:46;;;;;;;1.83;0.80;;;;;;;;;;4960628;28;20050;-69
2022/02/04 10:13:38;;;;;;;2.33;0.88;;;;;;;;;;4954359;29;20082;-70
2022/02/04 10:18:51;;;;;;;1.90;0.73;;;;;;;;;;4919189;29;20059;-71
2022/02/04 10:21:28;;;;;;;2.03;0.70;;;;;;;;;;4935310;29;20059;-70
2022/02/04 10:23:59;;;;;;;5.68;0.90;;;;;;;;;;4884325;29;20063;-70
2022/02/04 10:26:29;;;;;;;2.65;0.93;;;;;;;;;;4916111;29;20068;-70
2022/02/04 10:29:00;;;;;;;3.03;0.80;;;;;;;;;;4915660;29;20105;-70
2022/02/04 10:31:30;;;;;;;4.40;0.85;;;;;;;;;;4915898;29;20060;-69
2022/02/04 10:34:22;;;;;;;5.68;1.10;;;;;;;;;;4928416;29;20523;-70
2022/02/04 10:37:00;;;;;;;2.67;1.15;;;;;;;;;;4915674;29;20071;-69
2022/02/04 10:42:38;;;;;;;3.25;1.17;;;;;;;;;;4884514;29;20052;-69
2022/02/04 10:53:43;;;;;;;6.53;1.67;;;;;;;;;;4919919;29;20496;-69
2022/02/04 10:59:12;;;;;;;6.00;1.23;;;;;;;;;;4896866;29;20064;-69
2022/02/04 11:35:26;;;;;;;1.60;0.98;;;;;;;;;;4895664;29;20060;-69
2022/02/04 11:52:41;;;;;;;2.42;1.33;;;;;;;;;;4933309;29;20055;-69
2022/02/04 11:55:12;;;;;;;2.40;0.95;;;;;;;;;;4901907;29;20048;-69
2022/02/04 11:57:59;;;;;;;3.50;1.30;;;;;;;;;;4933326;29;20067;-69
2022/02/04 12:00:36;;;;;;;4.47;1.42;;;;;;;;;;4933469;29;20483;-69
2022/02/04 12:03:31;;;;;;;7.22;3.60;;;;;;;;;;4934783;28;20052;-69
2022/02/04 12:06:02;;;;;;;5.68;3.30;;;;;;;;;;4956216;28;20077;-69
2022/02/04 12:08:33;;;;;;;3.28;2.00;;;;;;;;;;4955476;28;20051;-69
2022/02/04 12:11:07;;;;;;;6.53;2.35;;;;;;;;;;4971729;28;20622;-69
2022/02/04 12:14:06;;;;;;;5.22;1.88;;;;;;;;;;4971497;28;20062;-70
2022/02/04 12:16:58;;;;;;;3.88;1.60;;;;;;;;;;4971515;28;20070;-70
2022/02/04 12:19:52;;;;;;;5.78;1.35;;;;;;;;;;4955513;28;20078;-69
2022/02/04 12:22:49;;;;;;;3.47;1.30;;;;;;;;;;4928676;28;20059;-70
2022/02/04 12:25:53;;;;;;;3.95;1.10;;;;;;;;;;4971346;28;20047;-70
2022/02/04 12:29:01;;;;;;;2.08;0.90;;;;;;;;;;4971475;28;20090;-67
2022/02/04 12:31:40;;;;;;;3.50;1.20;;;;;;;;;;4932890;29;20063;-71
2022/02/04 12:34:16;;;;;;;1.88;1.02;;;;;;;;;;4932957;29;20136;-71
2022/02/04 12:36:53;;;;;;;2.55;0.88;;;;;;;;;;4916638;29;20094;-72
2022/02/04 12:39:31;;;;;;;2.88;0.80;;;;;;;;;;4932858;29;20562;-71
2022/02/04 12:42:08;;;;;;;1.27;0.80;;;;;;;;;;4932417;29;20055;-70
2022/02/04 12:44:41;;;;;;;2.38;1.42;;;;;;;;;;4932720;29;20059;-68
2022/02/04 12:47:20;;;;;;;1.10;0.60;;;;;;;;;;4932939;29;20055;-68
2022/02/04 12:49:54;;;;;;;2.47;0.75;;;;;;;;;;4901168;29;20063;-71
2022/02/04 12:52:41;;;;;;;3.47;0.60;;;;;;;;;;4855264;29;20062;-70
2022/02/04 12:55:34;;;;;;;3.50;0.70;;;;;;;;;;4894367;29;20061;-69
2022/02/04 13:02:01;;;;;;;2.15;0.60;;;;;;;;;;4894357;29;20060;-71
2022/02/04 13:07:30;;;;;;;2.47;0.50;;;;;;;;;;4894329;29;20440;-69
2022/02/04 13:09:48;;;;;;;1.67;0.50;;;;;;;;;;4970594;28;20051;-71
2022/02/04 13:12:08;;;;;;;1.58;0.57;;;;;;;;;;4970719;28;20043;-72
2022/02/04 13:14:39;;;;;;;3.17;0.68;;;;;;;;;;4939588;28;20050;-73
2022/02/04 13:17:09;;;;;;;2.65;0.75;;;;;;;;;;4966584;28;20061;-72
2022/02/04 13:19:40;;;;;;;1.77;0.50;;;;;;;;;;4970451;28;20062;-71
2022/02/04 13:22:14;;;;;;;3.55;0.80;;;;;;;;;;4970472;28;20053;-72
2022/02/04 13:24:44;;;;;;;4.03;0.50;;;;;;;;;;4938432;28;20047;-71
2022/02/04 13:27:15;;;;;;;1.35;0.68;;;;;;;;;;4970295;28;20059;-71
2022/02/04 13:29:45;;;;;;;1.75;0.88;;;;;;;;;;4938258;28;20050;-71
2022/02/04 13:32:25;;;;;;;1.30;0.55;;;;;;;;;;4982090;28;20058;-71
2022/02/04 13:34:55;;;;;;;5.60;0.50;;;;;;;;;;5011185;28;20049;-70
2022/02/04 13:37:35;;;;;;;2.03;0.60;;;;;;;;;;4960857;28;20054;-71
2022/02/04 13:40:17;;;;;;;1.10;0.47;;;;;;;;;;5011691;28;20038;-68
2022/02/04 13:42:51;;;;;;;2.53;0.40;;;;;;;;;;4977706;28;20054;-74
2022/02/04 13:45:32;;;;;;;1.00;0.30;;;;;;;;;;4969929;28;20485;-74
2022/02/04 13:48:13;;;;;;;2.65;0.50;;;;;;;;;;4938093;28;20066;-72
2022/02/04 13:54:03;;;;;;;1.27;0.43;;;;;;;;;;4970289;28;20047;-71
2022/02/04 13:56:47;;;;;;;1.17;0.40;;;;;;;;;;4970161;28;20047;-70
2022/02/04 13:59:38;;;;;;;1.45;0.50;;;;;;;;;;4970231;28;20422;-71
2022/02/04 14:02:18;;;;;;;0.90;0.40;;;;;;;;;;4970098;28;20051;-74
2022/02/04 14:04:58;;;;;;;1.55;0.30;;;;;;;;;;4970032;28;20055;-70
2022/02/04 14:07:51;;;;;;;0.65;0.30;;;;;;;;;;4970063;28;20054;-71
2022/02/04 14:10:36;;;;;;;0.73;0.20;;;;;;;;;;4937915;28;20159;-69
2022/02/04 14:13:10;;;;;;;0.60;0.30;;;;;;;;;;4969641;28;20058;-69
2022/02/04 14:15:45;;;;;;;0.88;0.30;;;;;;;;;;4955951;28;20524;-69
2022/02/04 14:18:15;;;;;;;2.47;0.30;;;;;;;;;;4989357;28;20058;-70
2022/02/04 14:20:46;;;;;;;1.13;0.40;;;;;;;;;;4989229;28;20168;-73
2022/02/04 14:23:16;;;;;;;2.92;0.30;;;;;;;;;;4989022;28;20042;-72
2022/02/04 14:25:57;;;;;;;0.40;0.20;;;;;;;;;;4989234;28;20059;-72
2022/02/04 14:31:19;;;;;;;0.50;0.50;;;;;;;;;;4989030;28;20518;-68
2022/02/04 14:37:06;;;;;;;1.15;0.30;;;;;;;;;;4988853;28;20066;-69
2022/02/04 14:53:59;;;;;;;0.30;0.30;;;;;;;;;;4973113;28;20058;-66
2022/02/04 15:02:01;;;;;;;0.47;0.10;;;;;;;;;;4972849;28;20063;-70
2022/02/04 15:04:45;;;;;;;0.68;0.65;;;;;;;;;;4973038;28;20050;-72
2022/02/04 15:07:15;;;;;;;0.30;0.25;;;;;;;;;;4940953;28;20047;-75
2022/02/04 15:09:52;;;;;;;0.77;0.10;;;;;;;;;;4972891;28;20054;-71
2022/02/04 15:12:23;;;;;;;0.82;0.13;;;;;;;;;;4972716;28;20498;-70
2022/02/04 15:14:54;;;;;;;0.70;0.32;;;;;;;;;;5013971;28;20046;-72
2022/02/04 15:17:25;;;;;;;1.17;0.20;;;;;;;;;;4972615;28;20502;-70
2022/02/04 15:19:55;;;;;;;0.50;0.20;;;;;;;;;;4956606;28;20055;-71
2022/02/04 15:22:27;;;;;;;1.35;0.10;;;;;;;;;;4940527;28;20110;-67
2022/02/04 15:25:05;;;;;;;1.08;0.10;;;;;;;;;;4972725;28;20043;-71
2022/02/04 15:27:39;;;;;;;0.60;0.10;;;;;;;;;;4958164;28;20200;-72
2022/02/04 15:30:11;;;;;;;2.45;0.30;;;;;;;;;;4972325;28;20054;-74
2022/02/04 15:32:41;;;;;;;0.57;0.17;;;;;;;;;;4972379;28;20054;-74
2022/02/04 15:35:11;;;;;;;0.28;0.10;;;;;;;;;;4952511;28;20058;-73
2022/02/04 15:37:42;;;;;;;1.02;0.15;;;;;;;;;;4953168;29;20055;-74
2022/02/04 15:40:13;;;;;;;0.20;0.15;;;;;;;;;;4905645;29;20708;-75
2022/02/04 15:42:52;;;;;;;0.10;0.10;;;;;;;;;;4952911;29;20070;-75
2022/02/04 15:50:58;;;;;;;3.03;0.20;;;;;;;;;;4972093;28;20476;-75
2022/02/04 15:53:50;;;;;;;0.20;0.20;;;;;;;;;;4939913;28;20058;-75
2022/02/04 16:01:35;;;;;;;0.57;0.15;;;;;;;;;;4924501;28;20051;-71
2022/02/04 16:06:35;;;;;;;0.20;0.20;;;;;;;;;;4971970;28;20051;-74
2022/02/04 16:09:06;;;;;;;0.63;0.25;;;;;;;;;;4971481;28;20051;-75
2022/02/04 16:11:51;;;;;;;0.22;0.20;;;;;;;;;;4971629;28;20051;-76
2022/02/04 16:14:28;;;;;;;0.30;0.30;;;;;;;;;;4994101;28;20058;-72
2022/02/04 16:17:27;;;;;;;0.60;0.30;;;;;;;;;;4990652;28;20055;-67
2022/02/04 16:20:23;;;;;;;1.05;0.30;;;;;;;;;;4990934;28;20466;-75
2022/02/04 16:23:09;;;;;;;0.30;0.20;;;;;;;;;;4990731;28;20059;-72
2022/02/04 16:28:39;;;;;;;0.40;0.40;;;;;;;;;;4990898;28;20092;-73
2022/02/04 16:31:17;;;;;;;1.55;0.40;;;;;;;;;;4990656;28;20054;-73
2022/02/04 16:33:49;;;;;;;0.47;0.40;;;;;;;;;;4990576;28;20054;-72
2022/02/04 16:36:22;;;;;;;0.35;0.20;;;;;;;;;;4990760;28;20054;-75
2022/02/04 16:38:55;;;;;;;0.45;0.30;;;;;;;;;;4990821;28;20054;-72
2022/02/04 16:41:33;;;;;;;0.82;0.40;;;;;;;;;;4942619;28;20118;-73
2022/02/04 16:44:04;;;;;;;0.93;0.43;;;;;;;;;;4974354;28;20054;-72
2022/02/04 16:46:34;;;;;;;0.50;0.25;;;;;;;;;;4990412;28;20061;-75
2022/02/04 16:49:05;;;;;;;0.85;0.40;;;;;;;;;;4990577;28;20061;-74
2022/02/04 16:51:35;;;;;;;0.85;0.45;;;;;;;;;;4974489;28;20054;-73
2022/02/04 16:54:06;;;;;;;0.68;0.35;;;;;;;;;;4990944;28;20058;-75
2022/02/04 16:56:37;;;;;;;0.85;0.38;;;;;;;;;;4991727;28;20717;-73
2022/02/04 16:59:08;;;;;;;1.05;0.50;;;;;;;;;;4970807;28;20051;-70
2022/02/04 17:01:39;;;;;;;1.70;0.40;;;;;;;;;;4970974;28;20058;-71
2022/02/04 17:04:11;;;;;;;0.52;0.35;;;;;;;;;;4954573;28;20050;-69
2022/02/04 17:06:45;;;;;;;;;;;;;;;;;;4938924;28;20399;-73
2022/02/04 17:11:51;;;;;;;1.50;0.40;;;;;;;;;;4970828;28;20063;-69
2022/02/04 17:14:23;;;;;;;3.25;0.63;;;;;;;;;;4970784;28;20057;-72
2022/02/04 17:16:54;;;;;;;1.65;0.60;;;;;;;;;;4970803;28;20059;-69
2022/02/04 17:19:29;;;;;;;3.88;0.80;;;;;;;;;;4938479;28;20055;-70
2022/02/04 17:22:03;;;;;;;2.65;0.80;;;;;;;;;;4970640;28;20051;-71
2022/02/04 17:24:34;;;;;;;1.05;0.95;;;;;;;;;;4970200;28;20059;-70
2022/02/04 17:27:05;;;;;;;3.10;0.88;;;;;;;;;;4970532;28;20111;-72
2022/02/04 17:29:36;;;;;;;0.88;0.55;;;;;;;;;;4970067;28;20063;-70
2022/02/04 17:32:06;;;;;;;1.27;0.80;;;;;;;;;;4970272;28;20063;-67
2022/02/04 17:34:43;;;;;;;1.23;0.63;;;;;;;;;;4970375;28;20601;-70
2022/02/04 17:37:13;;;;;;;1.20;0.70;;;;;;;;;;4962401;28;20058;-71
2022/02/04 17:39:44;;;;;;;1.67;0.90;;;;;;;;;;4957693;28;20061;-77
2022/02/04 17:42:17;;;;;;;2.20;0.98;;;;;;;;;;4992057;28;20115;-75
2022/02/04 17:44:47;;;;;;;2.05;1.10;;;;;;;;;;4973847;28;20058;-71
2022/02/04 17:47:19;;;;;;;1.30;0.95;;;;;;;;;;4931559;29;20420;-77
2022/02/04 17:49:58;;;;;;;4.22;1.77;;;;;;;;;;4931576;29;20066;-75
2022/02/04 17:55:14;;;;;;;1.83;1.25;;;;;;;;;;4931595;29;20059;-73
2022/02/04 17:57:53;;;;;;;3.15;1.73;;;;;;;;;;4931897;29;20539;-73
2022/02/04 18:08:27;;;;;;;3.45;1.27;;;;;;;;;;4931255;29;20389;-73
2022/02/04 18:11:03;;;;;;;3.67;1.35;;;;;;;;;;4931427;29;20052;-73
2022/02/04 18:13:33;;;;;;;2.20;1.17;;;;;;;;;;4931382;29;20056;-72
2022/02/04 18:16:04;;;;;;;2.28;1.30;;;;;;;;;;4931757;29;20059;-73
2022/02/04 18:18:35;;;;;;;2.65;1.38;;;;;;;;;;4953535;28;20068;-72
2022/02/04 18:21:05;;;;;;;2.35;1.50;;;;;;;;;;4972070;28;20051;-74
2022/02/04 18:23:35;;;;;;;3.45;2.25;;;;;;;;;;4973721;28;20066;-74
2022/02/04 18:26:05;;;;;;;2.45;1.42;;;;;;;;;;4994890;28;20529;-72
2022/02/04 18:28:37;;;;;;;6.63;1.35;;;;;;;;;;4945750;28;20057;-73
2022/02/04 18:31:07;;;;;;;4.60;1.60;;;;;;;;;;4995564;28;20042;-73
2022/02/04 18:33:37;;;;;;;2.22;1.40;;;;;;;;;;5013362;28;20414;-75
2022/02/04 18:36:08;;;;;;;3.20;1.88;;;;;;;;;;4964217;28;20058;-74
2022/02/04 18:38:55;;;;;;;2.20;1.45;;;;;;;;;;4964011;28;20061;-73
2022/02/04 18:42:05;;;;;;;3.40;1.90;;;;;;;;;;4953998;29;20062;-73
2022/02/04 18:44:19;;;;;;;2.97;1.23;;;;;;;;;;4953874;29;20059;-73
2022/02/04 18:49:33;;;;;;;3.00;1.35;;;;;;;;;;4915911;29;20154;-73
2022/02/04 18:57:37;;;;;;;2.17;1.25;;;;;;;;;;4877944;29;20057;-75
2022/02/04 19:00:13;;;;;;;2.45;1.40;;;;;;;;;;4877625;29;20048;-72
2022/02/04 19:02:48;;;;;;;2.75;1.58;;;;;;;;;;4862798;29;20060;-71
2022/02/04 19:05:25;;;;;;;2.63;1.67;;;;;;;;;;4846974;29;20064;-69
2022/02/04 19:08:33;;;;;;;;;;;;;;;;;;;;;
2022/02/04 19:10:47;;;;;;;2.55;1.50;;;;;;;;;;4858964;29;20049;-71
2022/02/04 19:13:22;;;;;;;4.10;1.25;;;;;;;;;;4859087;29;20061;-70
2022/02/04 19:18:33;;;;;;;2.00;1.40;;;;;;;;;;4872428;29;20060;-74
2022/02/04 19:21:11;;;;;;;2.95;1.25;;;;;;;;;;4915130;29;20531;-74
2022/02/04 19:23:48;;;;;;;3.08;1.60;;;;;;;;;;4915274;29;20064;-75
2022/02/04 19:26:25;;;;;;;3.92;1.50;;;;;;;;;;4883398;29;20056;-74
2022/02/04 19:28:56;;;;;;;6.57;1.77;;;;;;;;;;4914956;29;20056;-74
2022/02/04 19:31:26;;;;;;;2.28;1.33;;;;;;;;;;4898389;29;20424;-75
2022/02/04 19:33:57;;;;;;;2.00;1.30;;;;;;;;;;4929032;29;20420;-74
2022/02/04 19:36:27;;;;;;;2.63;1.23;;;;;;;;;;4902910;29;20070;-73
2022/02/04 19:38:58;;;;;;;2.40;1.73;;;;;;;;;;4895798;29;20524;-74
2022/02/04 19:41:30;;;;;;;2.00;1.33;;;;;;;;;;4904552;28;20046;-74
2022/02/04 19:44:01;;;;;;;2.17;1.45;;;;;;;;;;4952775;28;20050;-74
2022/02/04 19:46:36;;;;;;;1.90;1.33;;;;;;;;;;4952693;29;20067;-76
2022/02/04 19:49:29;;;;;;;3.10;1.40;;;;;;;;;;4952901;28;20055;-74
2022/02/04 19:52:12;;;;;;;3.55;1.20;;;;;;;;;;4922958;29;20063;-75
2022/02/04 20:17:42;;;;;;;3.70;1.63;;;;;;;;;;4913508;29;20055;-74
2022/02/04 20:25:34;;;;;;;2.83;1.55;;;;;;;;;;4986504;28;20065;-74
2022/02/04 20:28:08;;;;;;;3.38;1.52;;;;;;;;;;4961969;28;20066;-73
2022/02/04 20:30:39;;;;;;;1.55;1.27;;;;;;;;;;5012664;28;20046;-73
2022/02/04 20:33:09;;;;;;;3.22;1.60;;;;;;;;;;4971104;28;20085;-77
2022/02/04 20:35:44;;;;;;;1.85;1.20;;;;;;;;;;4971368;28;20163;-78
2022/02/04 20:38:17;;;;;;;3.35;1.10;;;;;;;;;;4940719;28;20376;-73
2022/02/04 20:40:57;;;;;;;3.88;1.42;;;;;;;;;;4955239;28;20055;-69
2022/02/04 20:43:31;;;;;;;2.15;1.42;;;;;;;;;;4954775;28;20054;-71
2022/02/04 20:46:03;;;;;;;5.72;1.60;;;;;;;;;;4971201;28;20062;-71
2022/02/04 20:48:35;;;;;;;2.97;1.40;;;;;;;;;;4939007;28;20055;-72
2022/02/04 20:51:08;;;;;;;3.25;1.60;;;;;;;;;;4925062;28;20507;-72
2022/02/04 20:53:39;;;;;;;1.73;1.13;;;;;;;;;;4954682;28;20055;-71
2022/02/04 20:56:10;;;;;;;3.05;1.88;;;;;;;;;;4971238;28;20059;-72
2022/02/04 20:58:40;;;;;;;3.47;1.80;;;;;;;;;;4938529;28;20062;-71
2022/02/04 21:01:13;;;;;;;2.50;1.50;;;;;;;;;;4971046;28;20047;-71
2022/02/04 21:03:43;;;;;;;2.28;1.40;;;;;;;;;;4923425;28;20058;-71
2022/02/04 21:06:25;;;;;;;5.45;1.58;;;;;;;;;;4970734;28;20546;-72
2022/02/04 21:15:01;;;;;;;2.47;1.33;;;;;;;;;;4951401;29;20059;-74
2022/02/04 21:17:39;;;;;;;2.15;1.60;;;;;;;;;;4925776;29;20195;-73
2022/02/04 21:20:12;;;;;;;2.55;1.55;;;;;;;;;;4951300;29;20074;-73
2022/02/04 21:22:43;;;;;;;2.92;1.70;;;;;;;;;;4951480;29;20055;-73
2022/02/04 21:25:14;;;;;;;3.08;1.38;;;;;;;;;;4950919;29;20067;-73
2022/02/04 21:27:48;;;;;;;3.17;1.60;;;;;;;;;;4935646;29;20054;-73
2022/02/04 21:30:19;;;;;;;2.60;1.60;;;;;;;;;;4950962;29;20165;-72
2022/02/04 21:32:53;;;;;;;4.57;1.67;;;;;;;;;;4955355;28;20054;-74
2022/02/04 21:38:13;;;;;;;3.67;2.20;;;;;;;;;;4989765;28;20059;-75
2022/02/04 21:40:43;;;;;;;4.78;1.83;;;;;;;;;;4937602;28;20054;-74
2022/02/04 21:43:14;;;;;;;4.20;1.98;;;;;;;;;;4969989;28;20490;-73
2022/02/04 21:45:46;;;;;;;3.90;2.05;;;;;;;;;;4902171;29;20422;-74
2022/02/04 21:48:19;;;;;;;4.75;2.00;;;;;;;;;;4933812;29;20589;-73
2022/02/04 21:50:52;;;;;;;3.55;1.95;;;;;;;;;;4908492;29;20052;-75
2022/02/04 21:53:23;;;;;;;4.55;2.13;;;;;;;;;;4893698;29;20065;-74
2022/02/04 21:55:53;;;;;;;4.03;1.90;;;;;;;;;;4906071;29;20056;-74
2022/02/04 21:58:23;;;;;;;4.03;2.08;;;;;;;;;;4900484;29;20421;-74
2022/02/04 22:00:54;;;;;;;5.32;2.30;;;;;;;;;;4908994;29;20072;-73
2022/02/04 22:03:27;;;;;;;3.78;1.92;;;;;;;;;;4904082;29;20045;-74